Time;durP1;ratioP1;P1;durP2;ratioP2;P2;SDS_P1;SDS_P2;PMS_P1;PMS_P2;Temp;Humidity;BMP_temperature;BMP_pressure;BME280_temperature;BME280_humidity;BME280_pressure;Samples;Min_cycle;Max_cycle;Signal;HPM_P1;HPM_P2
2021/10/15 00:02:17;;;;;;;40.63;28.75;;;230.80;2252.80;;;;;;4857174;29;20033;-57
2021/10/15 00:04:43;;;;;;;40.00;27.42;;;230.60;2252.80;;;;;;4857620;29;20028;-57
2021/10/15 00:07:09;;;;;;;54.72;35.10;;;230.80;2252.80;;;;;;4857990;29;20042;-58
2021/10/15 00:09:35;;;;;;;46.10;28.60;;;230.80;2252.80;;;;;;4857686;29;20030;-57
2021/10/15 00:12:01;;;;;;;49.92;31.58;;;230.70;2252.80;;;;;;4857756;29;20064;-57
2021/10/15 00:14:27;;;;;;;44.72;29.88;;;230.80;2252.80;;;;;;4857754;29;20069;-57
2021/10/15 00:16:54;;;;;;;43.05;31.50;;;230.90;2252.80;;;;;;4857632;29;20026;-56
2021/10/15 00:19:20;;;;;;;47.20;31.48;;;230.90;2252.80;;;;;;4857922;29;20097;-56
2021/10/15 00:21:45;;;;;;;43.58;28.63;;;231.00;2252.80;;;;;;4857452;29;20094;-57
2021/10/15 00:24:11;;;;;;;38.65;25.13;;;231.00;2252.80;;;;;;4857747;29;20180;-57
2021/10/15 00:26:37;;;;;;;40.50;24.85;;;231.00;2252.80;;;;;;4857673;29;20112;-55
2021/10/15 00:29:05;;;;;;;33.17;23.38;;;231.10;2252.80;;;;;;4857283;29;20382;-57
2021/10/15 00:31:32;;;;;;;33.60;23.40;;;231.10;2252.80;;;;;;4857248;29;20596;-56
2021/10/15 00:33:57;;;;;;;38.13;24.23;;;231.10;2252.80;;;;;;4857645;29;20025;-57
2021/10/15 00:36:23;;;;;;;31.55;22.85;;;231.10;2252.80;;;;;;4857270;29;20511;-57
2021/10/15 00:38:49;;;;;;;29.00;21.88;;;231.10;2252.80;;;;;;4857535;29;20365;-57
2021/10/15 00:41:15;;;;;;;27.75;20.00;;;231.00;2252.80;;;;;;4857093;29;20052;-57
2021/10/15 00:44:04;;;;;;;30.02;20.17;;;231.00;2252.80;;;;;;4857460;29;20022;-57
2021/10/15 00:46:30;;;;;;;36.00;22.92;;;231.00;2252.80;;;;;;4857566;29;20033;-56
2021/10/15 00:48:56;;;;;;;33.20;21.10;;;231.00;2252.80;;;;;;4857416;29;20026;-57
2021/10/15 00:51:23;;;;;;;27.70;19.77;;;231.00;2252.80;;;;;;4857814;29;20033;-57
2021/10/15 00:53:49;;;;;;;31.30;21.38;;;230.90;2252.80;;;;;;4857384;29;20511;-56
2021/10/15 00:56:16;;;;;;;28.15;20.70;;;230.90;2252.80;;;;;;4857134;29;20069;-56
2021/10/15 00:58:41;;;;;;;26.23;19.38;;;230.90;2252.80;;;;;;4857302;29;20077;-57
2021/10/15 01:01:07;;;;;;;26.73;18.95;;;230.80;2252.80;;;;;;4857137;29;20037;-57
2021/10/15 01:03:34;;;;;;;29.48;20.00;;;230.80;2252.80;;;;;;4859864;29;20025;-57
2021/10/15 01:06:01;;;;;;;49.63;35.17;;;230.80;2252.80;;;;;;4860920;29;20044;-57
2021/10/15 01:08:27;;;;;;;32.35;22.35;;;230.90;2252.80;;;;;;4860649;29;20556;-55
2021/10/15 01:10:54;;;;;;;28.00;19.88;;;230.90;2252.80;;;;;;4860546;29;20025;-56
2021/10/15 01:13:20;;;;;;;33.03;22.35;;;230.90;2252.80;;;;;;4860735;29;20112;-56
2021/10/15 01:15:46;;;;;;;36.45;22.92;;;230.90;2252.80;;;;;;4860382;29;20025;-57
2021/10/15 01:18:13;;;;;;;30.23;20.27;;;230.90;2252.80;;;;;;4860617;29;20490;-56
2021/10/15 01:20:40;;;;;;;32.75;21.15;;;230.90;2252.80;;;;;;4860662;29;20090;-55
2021/10/15 01:23:06;;;;;;;29.55;20.30;;;230.80;2252.80;;;;;;4860392;29;20025;-56
2021/10/15 01:25:34;;;;;;;34.58;21.40;;;230.80;2252.80;;;;;;4860635;29;20511;-57
2021/10/15 01:28:02;;;;;;;29.25;19.30;;;230.90;2252.80;;;;;;4860378;29;20026;-57
2021/10/15 01:30:27;;;;;;;26.80;18.48;;;230.90;2252.80;;;;;;4860024;29;20029;-57
2021/10/15 01:32:53;;;;;;;29.45;19.77;;;231.00;2252.80;;;;;;4860208;29;20049;-56
2021/10/15 01:35:19;;;;;;;32.90;21.50;;;230.90;2252.80;;;;;;4860154;29;20508;-57
2021/10/15 01:37:45;;;;;;;38.47;20.92;;;230.90;2252.80;;;;;;4860220;29;20059;-56
2021/10/15 01:40:11;;;;;;;28.10;19.27;;;230.90;2252.80;;;;;;4860000;29;20030;-56
2021/10/15 01:42:56;;;;;;;31.85;20.83;;;230.90;2252.80;;;;;;4860051;29;20029;-56
2021/10/15 01:45:27;;;;;;;32.17;19.50;;;230.80;2252.80;;;;;;4860267;29;20070;-56
2021/10/15 01:47:53;;;;;;;27.00;18.92;;;230.90;2252.80;;;;;;4860148;29;20025;-58
2021/10/15 01:50:21;;;;;;;28.05;20.48;;;230.80;2252.80;;;;;;4860137;29;20029;-56
2021/10/15 01:52:47;;;;;;;27.73;19.77;;;230.80;2252.80;;;;;;4859967;29;20033;-58
2021/10/15 01:55:14;;;;;;;37.67;21.52;;;230.80;2252.80;;;;;;4859899;29;20042;-57
2021/10/15 01:57:39;;;;;;;34.80;22.83;;;230.80;2252.80;;;;;;4859603;29;20070;-59
2021/10/15 02:00:09;;;;;;;30.88;20.88;;;230.80;2252.80;;;;;;4859480;29;20038;-58
2021/10/15 02:02:35;;;;;;;29.33;19.30;;;230.90;2252.80;;;;;;4859530;29;20396;-57
2021/10/15 02:05:01;;;;;;;28.67;21.15;;;230.80;2252.80;;;;;;4859869;29;20029;-57
2021/10/15 02:07:27;;;;;;;29.10;20.05;;;230.80;2252.80;;;;;;4859607;29;20026;-56
2021/10/15 02:09:52;;;;;;;49.38;29.05;;;230.90;2252.80;;;;;;4859633;29;20037;-57
2021/10/15 02:12:18;;;;;;;37.25;22.23;;;230.90;2252.80;;;;;;4859679;29;20025;-58
2021/10/15 02:14:44;;;;;;;43.40;29.02;;;230.90;2252.80;;;;;;4858873;29;20358;-57
2021/10/15 02:17:10;;;;;;;34.42;22.80;;;231.00;2252.80;;;;;;4859849;29;20033;-57
2021/10/15 02:19:36;;;;;;;32.47;20.52;;;230.90;2252.80;;;;;;4859444;29;20046;-57
2021/10/15 02:22:02;;;;;;;39.60;22.05;;;230.90;2252.80;;;;;;4859522;29;20050;-57
2021/10/15 02:24:28;;;;;;;35.60;22.50;;;230.80;2252.80;;;;;;4859507;29;20030;-58
2021/10/15 02:26:54;;;;;;;44.03;26.95;;;230.90;2252.80;;;;;;4859344;29;20034;-56
2021/10/15 02:29:20;;;;;;;37.45;24.02;;;230.80;2252.80;;;;;;4859295;29;20030;-57
2021/10/15 02:31:46;;;;;;;30.98;19.73;;;230.90;2252.80;;;;;;4859008;29;20049;-57
2021/10/15 02:34:11;;;;;;;29.80;20.50;;;230.90;2252.80;;;;;;4859466;29;20033;-57
2021/10/15 02:36:37;;;;;;;33.75;21.13;;;231.00;2252.80;;;;;;4859523;29;20125;-55
2021/10/15 02:39:04;;;;;;;29.67;19.60;;;230.90;2252.80;;;;;;4859056;29;20082;-57
2021/10/15 02:41:30;;;;;;;30.00;20.23;;;230.90;2252.80;;;;;;4859006;29;20113;-58
2021/10/15 02:43:55;;;;;;;30.23;20.40;;;230.90;2252.80;;;;;;4858668;29;20480;-57
2021/10/15 02:46:21;;;;;;;29.88;18.33;;;230.90;2252.80;;;;;;4859214;29;20088;-57
2021/10/15 02:48:47;;;;;;;30.92;20.58;;;230.90;2252.80;;;;;;4859362;29;20025;-58
2021/10/15 02:51:13;;;;;;;28.88;21.45;;;230.90;2252.80;;;;;;4858918;29;20531;-57
2021/10/15 02:53:39;;;;;;;32.78;21.10;;;230.80;2252.80;;;;;;4859088;29;20503;-57
2021/10/15 02:56:06;;;;;;;35.47;21.67;;;230.90;2252.80;;;;;;4858776;29;20033;-57
2021/10/15 02:58:32;;;;;;;32.80;21.80;;;230.90;2252.80;;;;;;4858441;29;20038;-57
2021/10/15 03:00:58;;;;;;;36.75;25.42;;;230.90;2252.80;;;;;;4858516;29;20046;-57
2021/10/15 03:03:24;;;;;;;39.72;27.13;;;230.90;2252.80;;;;;;4858701;29;20430;-56
2021/10/15 03:05:49;;;;;;;34.25;23.33;;;230.90;2252.80;;;;;;4858910;29;20081;-56
2021/10/15 03:08:15;;;;;;;55.22;36.42;;;230.60;2252.80;;;;;;4858518;29;20049;-57
2021/10/15 03:10:41;;;;;;;39.85;24.15;;;230.60;2252.80;;;;;;4858656;29;20113;-56
2021/10/15 03:13:07;;;;;;;34.25;23.10;;;230.80;2252.80;;;;;;4858464;29;20165;-56
2021/10/15 03:15:32;;;;;;;32.50;23.88;;;230.70;2252.80;;;;;;4858533;29;20072;-57
2021/10/15 03:17:58;;;;;;;29.98;21.70;;;230.80;2252.80;;;;;;4858491;29;20030;-57
2021/10/15 03:20:24;;;;;;;34.22;22.70;;;230.90;2252.80;;;;;;4858535;29;20042;-57
2021/10/15 03:22:50;;;;;;;31.73;21.90;;;230.90;2252.80;;;;;;4858699;29;20026;-56
2021/10/15 03:25:15;;;;;;;34.17;24.55;;;230.90;2252.80;;;;;;4858002;29;20042;-57
2021/10/15 03:27:41;;;;;;;42.67;32.25;;;230.90;2252.80;;;;;;4857871;29;20045;-57
2021/10/15 03:30:08;;;;;;;33.67;23.42;;;230.90;2252.80;;;;;;4858065;29;20036;-57
2021/10/15 03:32:34;;;;;;;32.60;24.70;;;230.90;2252.80;;;;;;4858090;29;20062;-57
2021/10/15 03:35:00;;;;;;;33.95;24.13;;;230.90;2252.80;;;;;;4858461;29;20072;-57
2021/10/15 03:37:25;;;;;;;31.92;22.50;;;230.80;2252.80;;;;;;4857933;29;20033;-58
2021/10/15 03:39:52;;;;;;;29.55;21.40;;;230.70;2252.80;;;;;;4858321;29;20040;-57
2021/10/15 03:42:18;;;;;;;33.72;22.30;;;230.80;2252.80;;;;;;4858117;29;20029;-57
2021/10/15 03:44:44;;;;;;;34.63;22.52;;;230.80;2252.80;;;;;;4857904;29;20032;-57
2021/10/15 03:47:10;;;;;;;30.88;21.60;;;230.70;2252.80;;;;;;4858367;29;20033;-58
2021/10/15 03:49:36;;;;;;;35.72;22.85;;;230.80;2252.80;;;;;;4857798;29;20094;-57
2021/10/15 03:52:03;;;;;;;35.75;24.25;;;230.80;2252.80;;;;;;4857926;29;20481;-57
2021/10/15 03:54:28;;;;;;;37.33;25.27;;;230.80;2252.80;;;;;;4858023;29;20086;-57
2021/10/15 03:56:54;;;;;;;38.20;26.15;;;230.80;2252.80;;;;;;4857944;29;20033;-57
2021/10/15 03:59:20;;;;;;;38.40;25.40;;;230.80;2252.80;;;;;;4857835;29;20029;-58
2021/10/15 04:01:46;;;;;;;34.95;24.13;;;230.80;2252.80;;;;;;4857545;29;20052;-57
2021/10/15 04:04:12;;;;;;;74.38;58.88;;;230.80;2252.80;;;;;;4857745;29;20046;-57
2021/10/15 04:06:38;;;;;;;32.05;22.92;;;230.70;2252.80;;;;;;4857734;29;20032;-57
2021/10/15 04:09:04;;;;;;;34.58;23.02;;;230.70;2252.80;;;;;;4857770;29;20054;-57
2021/10/15 04:11:30;;;;;;;39.33;29.42;;;230.50;2252.80;;;;;;4857968;29;20068;-57
2021/10/15 04:13:55;;;;;;;35.78;25.35;;;230.60;2252.80;;;;;;4857412;29;20074;-58
2021/10/15 04:16:21;;;;;;;32.92;23.40;;;230.50;2252.80;;;;;;4857943;29;20970;-57
2021/10/15 04:18:47;;;;;;;40.75;35.55;;;230.50;2252.80;;;;;;4857794;29;20030;-57
2021/10/15 04:21:13;;;;;;;32.45;24.38;;;230.50;2252.80;;;;;;4857621;29;20120;-57
2021/10/15 04:23:39;;;;;;;30.17;21.60;;;230.50;2252.80;;;;;;4857852;29;20433;-58
2021/10/15 04:26:05;;;;;;;31.63;21.55;;;230.50;2252.80;;;;;;4857393;29;20029;-57
2021/10/15 04:28:31;;;;;;;32.90;23.17;;;230.50;2252.80;;;;;;4857636;29;20030;-58
2021/10/15 04:30:56;;;;;;;38.95;28.92;;;230.60;2252.80;;;;;;4857043;29;20042;-58
2021/10/15 04:33:22;;;;;;;37.30;25.05;;;230.60;2252.80;;;;;;4857758;29;20073;-57
2021/10/15 04:35:48;;;;;;;36.80;26.35;;;230.60;2252.80;;;;;;4857588;29;20038;-57
2021/10/15 04:38:13;;;;;;;36.05;24.83;;;230.60;2252.80;;;;;;4859521;29;20113;-57
2021/10/15 04:40:39;;;;;;;37.33;26.45;;;230.50;2252.80;;;;;;4861425;29;20088;-57
2021/10/15 04:43:06;;;;;;;33.83;24.30;;;230.50;2252.80;;;;;;4844241;29;20182;-58
2021/10/15 04:45:32;;;;;;;33.55;24.20;;;230.50;2252.80;;;;;;4861255;29;20045;-57
2021/10/15 04:47:57;;;;;;;38.13;24.15;;;230.40;2252.80;;;;;;4860957;29;20060;-57
2021/10/15 04:50:23;;;;;;;38.25;29.10;;;230.40;2252.80;;;;;;4861099;29;20133;-57
2021/10/15 04:52:49;;;;;;;38.08;32.13;;;230.50;2252.80;;;;;;4861404;29;20033;-58
2021/10/15 04:55:15;;;;;;;38.28;25.48;;;230.40;2252.80;;;;;;4861097;29;20441;-57
2021/10/15 04:57:41;;;;;;;30.23;22.10;;;230.50;2252.80;;;;;;4860990;29;20036;-58
2021/10/15 05:00:09;;;;;;;33.72;23.27;;;230.50;2252.80;;;;;;4860621;29;20029;-58
2021/10/15 05:02:41;;;;;;;37.22;23.38;;;230.60;2252.80;;;;;;4860614;29;20033;-57
2021/10/15 05:05:09;;;;;;;32.35;23.48;;;230.60;2252.80;;;;;;4860895;29;20041;-57
2021/10/15 05:07:35;;;;;;;30.88;23.40;;;230.60;2252.80;;;;;;4860857;29;20030;-56
2021/10/15 05:10:02;;;;;;;36.83;28.90;;;230.70;2252.80;;;;;;4861036;29;20078;-59
2021/10/15 05:12:28;;;;;;;34.47;22.98;;;230.60;2252.80;;;;;;4860763;29;20029;-59
2021/10/15 05:14:54;;;;;;;36.63;22.88;;;230.60;2252.80;;;;;;4860382;29;20045;-59
2021/10/15 05:17:20;;;;;;;31.50;21.48;;;230.60;2252.80;;;;;;4860612;29;20040;-59
2021/10/15 05:19:46;;;;;;;33.10;23.25;;;230.60;2252.80;;;;;;4858966;29;20385;-61
2021/10/15 05:22:13;;;;;;;39.30;25.13;;;230.60;2252.80;;;;;;4860279;29;20044;-61
2021/10/15 05:24:39;;;;;;;37.78;26.13;;;230.60;2252.80;;;;;;4860487;29;20040;-59
2021/10/15 05:27:05;;;;;;;39.85;26.73;;;230.60;2252.80;;;;;;4860063;29;20472;-62
2021/10/15 05:29:31;;;;;;;36.70;24.52;;;230.50;2252.80;;;;;;4860104;29;20037;-62
2021/10/15 05:31:57;;;;;;;38.90;26.17;;;230.50;2252.80;;;;;;4860006;29;20054;-58
2021/10/15 05:34:23;;;;;;;38.67;25.83;;;230.60;2252.80;;;;;;4860504;29;20075;-62
2021/10/15 05:36:49;;;;;;;38.13;25.02;;;230.50;2252.80;;;;;;4860421;29;20438;-59
2021/10/15 05:39:15;;;;;;;39.05;25.73;;;230.60;2252.80;;;;;;4862025;29;20035;-57
2021/10/15 05:41:41;;;;;;;42.17;27.35;;;230.60;2252.80;;;;;;4869023;29;20123;-68
2021/10/15 05:44:06;;;;;;;37.80;24.42;;;230.60;2252.80;;;;;;4867205;29;20041;-59
2021/10/15 05:46:32;;;;;;;39.83;26.33;;;230.60;2252.80;;;;;;4863317;29;20041;-59
2021/10/15 05:48:58;;;;;;;42.15;29.45;;;230.60;2252.80;;;;;;4859528;29;20108;-60
2021/10/15 05:51:25;;;;;;;45.63;29.63;;;230.60;2252.80;;;;;;4860194;29;20492;-63
2021/10/15 05:53:54;;;;;;;39.50;28.40;;;230.70;2252.80;;;;;;4860296;29;20108;-65
2021/10/15 05:56:37;;;;;;;44.97;30.65;;;230.70;2252.80;;;;;;4859997;29;20504;-58
2021/10/15 05:59:05;;;;;;;56.30;37.22;;;230.80;2252.80;;;;;;4859392;29;20041;-58
2021/10/15 06:01:33;;;;;;;56.03;40.35;;;230.70;2252.80;;;;;;4859706;29;20057;-62
2021/10/15 06:14:28;;;;;;;49.30;34.70;;;230.80;2252.80;;;;;;4859655;29;20081;-64
2021/10/15 06:16:57;;;;;;;49.28;34.05;;;230.80;2252.80;;;;;;4859545;29;20034;-58
2021/10/15 06:19:25;;;;;;;45.83;30.58;;;230.70;2252.80;;;;;;4859413;29;20041;-60
2021/10/15 06:21:51;;;;;;;50.50;33.33;;;230.60;2252.80;;;;;;4859459;29;20473;-67
2021/10/15 06:24:17;;;;;;;41.28;29.73;;;230.70;2252.80;;;;;;4859069;29;20025;-59
2021/10/15 06:26:44;;;;;;;44.15;29.60;;;230.70;2252.80;;;;;;4859364;29;20135;-59
2021/10/15 06:29:10;;;;;;;40.00;29.75;;;230.70;2252.80;;;;;;4859340;29;20086;-62
2021/10/15 06:31:36;;;;;;;43.60;30.80;;;230.80;2252.80;;;;;;4859067;29;20054;-63
2021/10/15 06:34:02;;;;;;;45.15;30.25;;;230.80;2252.80;;;;;;4859281;29;20036;-61
2021/10/15 06:36:27;;;;;;;46.47;31.90;;;230.80;2252.80;;;;;;4859077;29;20033;-58
2021/10/15 06:38:53;;;;;;;48.20;33.97;;;230.90;2252.80;;;;;;4859097;29;20109;-61
2021/10/15 06:41:19;;;;;;;44.55;30.10;;;230.90;2252.80;;;;;;4859076;29;20046;-62
2021/10/15 06:43:45;;;;;;;56.92;35.38;;;230.90;2252.80;;;;;;4859070;29;20036;-60
2021/10/15 06:46:11;;;;;;;49.45;34.47;;;231.00;2252.80;;;;;;4859281;29;20037;-64
2021/10/15 06:48:37;;;;;;;40.08;27.27;;;230.90;2252.80;;;;;;4859088;29;20029;-63
2021/10/15 06:51:02;;;;;;;39.63;28.77;;;230.90;2252.80;;;;;;4857285;29;20105;-59
2021/10/15 06:53:28;;;;;;;37.22;26.75;;;230.80;2252.80;;;;;;4858905;29;20064;-59
2021/10/15 06:55:54;;;;;;;32.67;25.17;;;230.80;2252.80;;;;;;4858910;29;20033;-61
2021/10/15 06:58:19;;;;;;;43.03;26.38;;;230.90;2252.80;;;;;;4858968;29;20036;-66
2021/10/15 07:00:48;;;;;;;44.47;26.38;;;230.90;2252.80;;;;;;4858594;29;20041;-64
2021/10/15 07:03:18;;;;;;;39.33;30.65;;;230.90;2252.80;;;;;;4867125;29;20052;-59
2021/10/15 07:05:45;;;;;;;43.70;31.80;;;230.90;2252.80;;;;;;4867490;29;20128;-61
2021/10/15 07:08:11;;;;;;;44.40;27.20;;;230.90;2252.80;;;;;;4866096;29;20017;-58
2021/10/15 07:10:38;;;;;;;66.70;35.40;;;230.90;2252.80;;;;;;4866390;29;20025;-58
2021/10/15 07:13:03;;;;;;;37.13;25.13;;;230.90;2252.80;;;;;;4867229;29;20040;-65
2021/10/15 07:15:29;;;;;;;108.03;52.45;;;231.00;2252.80;;;;;;4867612;29;20030;-63
2021/10/15 07:17:55;;;;;;;52.50;31.70;;;230.90;2252.80;;;;;;4866169;29;20105;-59
2021/10/15 07:20:21;;;;;;;245.65;108.97;;;231.10;2252.80;;;;;;4866127;29;20041;-60
2021/10/15 07:22:46;;;;;;;67.60;36.55;;;231.10;2252.80;;;;;;4867190;29;20388;-63
2021/10/15 07:25:12;;;;;;;52.05;32.20;;;231.20;2252.80;;;;;;4865816;29;20025;-64
2021/10/15 07:27:39;;;;;;;35.42;25.17;;;231.20;2252.80;;;;;;4866321;29;20041;-59
2021/10/15 07:30:07;;;;;;;125.97;59.58;;;231.20;2252.80;;;;;;4866839;29;20111;-58
2021/10/15 07:32:34;;;;;;;64.20;36.67;;;231.30;2252.80;;;;;;4865608;29;20092;-63
2021/10/15 07:35:00;;;;;;;42.20;29.67;;;231.10;2252.80;;;;;;4865915;29;20032;-63
2021/10/15 07:37:26;;;;;;;136.88;70.88;;;231.10;2252.80;;;;;;4866917;29;20492;-63
2021/10/15 07:39:52;;;;;;;55.53;34.00;;;231.00;2252.80;;;;;;4865899;29;20034;-64
2021/10/15 07:42:18;;;;;;;78.68;53.03;;;231.10;2252.80;;;;;;4865966;29;20037;-59
2021/10/15 07:44:44;;;;;;;43.28;25.63;;;231.20;2252.80;;;;;;4866909;29;20094;-67
2021/10/15 07:47:10;;;;;;;35.22;24.20;;;231.20;2252.80;;;;;;4865266;29;20492;-67
2021/10/15 07:49:37;;;;;;;34.25;23.77;;;231.20;2252.80;;;;;;4865795;29;20028;-68
2021/10/15 07:52:03;;;;;;;68.72;42.10;;;231.10;2252.80;;;;;;4861947;29;20492;-61
2021/10/15 07:54:29;;;;;;;99.00;59.60;;;231.20;2252.80;;;;;;4865270;29;20024;-59
2021/10/15 07:56:55;;;;;;;37.33;24.23;;;231.30;2252.80;;;;;;4864197;29;20081;-55
2021/10/15 07:59:20;;;;;;;46.97;28.90;;;231.20;2252.80;;;;;;4864046;29;20037;-55
2021/10/15 08:01:46;;;;;;;36.58;25.17;;;231.10;2252.80;;;;;;4865231;29;20033;-56
2021/10/15 08:04:13;;;;;;;44.28;30.02;;;231.00;2252.80;;;;;;4864184;29;20025;-57
2021/10/15 08:06:39;;;;;;;37.58;27.33;;;231.00;2252.80;;;;;;4863971;29;20032;-56
2021/10/15 08:09:05;;;;;;;37.25;24.27;;;231.20;2252.80;;;;;;4864995;29;20025;-57
2021/10/15 08:11:31;;;;;;;37.15;23.63;;;231.30;2252.80;;;;;;4863753;29;20034;-60
2021/10/15 08:13:57;;;;;;;35.78;23.02;;;231.30;2252.80;;;;;;4863744;29;20117;-60
2021/10/15 08:16:23;;;;;;;30.35;22.77;;;231.30;2252.80;;;;;;4865254;29;20063;-59
2021/10/15 08:18:50;;;;;;;40.33;27.52;;;231.30;2252.80;;;;;;4863446;29;20026;-56
2021/10/15 08:21:16;;;;;;;32.65;24.23;;;231.20;2252.80;;;;;;4863862;29;20044;-67
2021/10/15 08:23:44;;;;;;;31.60;22.08;;;231.30;2252.80;;;;;;4864619;29;20442;-71
2021/10/15 08:26:10;;;;;;;33.83;22.88;;;231.20;2252.80;;;;;;4865122;29;20041;-64
2021/10/15 08:28:35;;;;;;;34.38;24.02;;;231.10;2252.80;;;;;;4863747;29;20033;-55
2021/10/15 08:31:03;;;;;;;33.58;22.88;;;231.10;2252.80;;;;;;4863429;29;20036;-56
2021/10/15 08:33:29;;;;;;;30.65;21.33;;;231.20;2252.80;;;;;;4864772;29;20029;-60
2021/10/15 08:35:55;;;;;;;36.10;23.30;;;230.90;2252.80;;;;;;4863748;29;20032;-56
2021/10/15 08:38:21;;;;;;;34.85;23.00;;;231.00;2252.80;;;;;;4863796;29;20480;-60
2021/10/15 08:40:48;;;;;;;34.55;23.27;;;231.20;2252.80;;;;;;4863822;29;20396;-59
2021/10/15 08:43:13;;;;;;;32.90;24.10;;;231.20;2252.80;;;;;;4857253;29;20056;-64
2021/10/15 08:45:40;;;;;;;34.47;22.92;;;231.20;2252.80;;;;;;4840992;29;20033;-58
2021/10/15 08:48:06;;;;;;;49.17;36.03;;;231.30;2252.80;;;;;;4857252;29;20044;-57
2021/10/15 08:50:33;;;;;;;30.55;21.73;;;256.00;2252.80;;;;;;4857335;29;20436;-62
2021/10/15 08:52:59;;;;;;;35.22;28.58;;;256.10;2252.80;;;;;;4857495;29;20037;-59
2021/10/15 08:55:25;;;;;;;31.27;22.40;;;256.00;2252.80;;;;;;4857309;29;20455;-58
2021/10/15 08:57:53;;;;;;;34.00;23.10;;;256.00;2252.80;;;;;;4857368;29;20109;-57
2021/10/15 09:00:22;;;;;;;33.55;25.95;;;256.00;2252.80;;;;;;4857130;29;20033;-62
2021/10/15 09:03:08;;;;;;;52.08;37.00;;;256.20;2252.80;;;;;;4857204;29;20042;-61
2021/10/15 09:05:34;;;;;;;54.05;38.65;;;256.20;2252.80;;;;;;4856992;29;20070;-63
2021/10/15 09:08:01;;;;;;;31.73;24.67;;;256.20;2252.80;;;;;;4857267;29;20457;-60
2021/10/15 09:10:30;;;;;;;36.67;25.23;;;256.20;2252.80;;;;;;4857086;29;20472;-67
2021/10/15 09:12:57;;;;;;;35.25;24.15;;;256.20;2252.80;;;;;;4857059;29;20029;-56
2021/10/15 09:15:32;;;;;;;36.28;24.90;;;256.20;2252.80;;;;;;4857047;29;20400;-57
2021/10/15 09:18:08;;;;;;;35.15;24.80;;;256.20;2252.80;;;;;;4857176;29;20041;-57
2021/10/15 09:20:35;;;;;;;70.00;45.75;;;256.30;2252.80;;;;;;4856847;29;20044;-70
2021/10/15 09:23:01;;;;;;;49.83;32.60;;;256.40;2252.80;;;;;;4857046;29;20101;-56
2021/10/15 09:25:35;;;;;;;35.25;26.13;;;256.40;2252.80;;;;;;4872236;29;20029;-61
2021/10/15 09:28:10;;;;;;;34.40;23.75;;;256.50;2252.80;;;;;;4879193;29;20033;-57
2021/10/15 09:30:40;;;;;;;33.83;23.27;;;256.50;2252.80;;;;;;4878696;29;20539;-60
2021/10/15 09:33:07;;;;;;;35.38;24.08;;;256.50;2252.80;;;;;;4878705;29;20060;-59
2021/10/15 09:35:33;;;;;;;33.38;21.27;;;256.50;2252.80;;;;;;4878828;29;20033;-56
2021/10/15 09:38:02;;;;;;;32.15;23.42;;;256.50;2252.80;;;;;;4879107;29;20033;-59
2021/10/15 09:40:35;;;;;;;35.17;23.90;;;256.50;2252.80;;;;;;4878868;29;20045;-63
2021/10/15 09:43:05;;;;;;;79.30;65.38;;;256.50;2252.80;;;;;;4878031;29;20025;-59
2021/10/15 09:45:53;;;;;;;32.47;24.23;;;256.60;2252.80;;;;;;4876787;29;20036;-73
2021/10/15 09:48:20;;;;;;;38.08;29.58;;;256.60;2252.80;;;;;;4877091;29;20084;-59
2021/10/15 09:50:47;;;;;;;37.80;26.83;;;256.60;2252.80;;;;;;4877048;29;20029;-61
2021/10/15 09:53:13;;;;;;;39.70;24.23;;;256.50;2252.80;;;;;;4876983;29;20121;-58
2021/10/15 09:55:43;;;;;;;37.70;23.58;;;256.60;2252.80;;;;;;4877056;29;20472;-58
2021/10/15 09:58:17;;;;;;;31.52;22.38;;;256.50;2252.80;;;;;;4876785;29;20399;-58
2021/10/15 10:00:48;;;;;;;36.63;23.20;;;256.50;2252.80;;;;;;4876552;29;20407;-57
2021/10/15 10:03:15;;;;;;;34.22;23.27;;;256.40;2252.80;;;;;;4876894;29;20043;-57
2021/10/15 10:05:41;;;;;;;82.43;55.70;;;256.50;2252.80;;;;;;4877010;29;20025;-57
2021/10/15 10:08:07;;;;;;;31.50;23.38;;;256.50;2252.80;;;;;;4876634;29;20033;-56
2021/10/15 10:10:35;;;;;;;33.60;22.73;;;256.50;2252.80;;;;;;4876528;29;20036;-57
2021/10/15 10:13:02;;;;;;;31.00;23.00;;;256.20;2252.80;;;;;;4876751;29;20037;-57
2021/10/15 10:15:32;;;;;;;32.65;22.88;;;256.30;2252.80;;;;;;4876615;29;20061;-65
2021/10/15 10:18:18;;;;;;;43.58;28.67;;;256.40;2252.80;;;;;;4876612;29;20029;-56
2021/10/15 10:20:58;;;;;;;34.63;25.60;;;256.50;2252.80;;;;;;4876442;29;20484;-58
2021/10/15 10:23:35;;;;;;;80.50;60.10;;;256.50;2252.80;;;;;;4876049;29;20392;-59
2021/10/15 10:26:10;;;;;;;37.15;26.38;;;256.40;2252.80;;;;;;4876574;29;20043;-59
2021/10/15 10:28:36;;;;;;;38.78;26.98;;;256.40;2252.80;;;;;;4876620;29;20033;-57
2021/10/15 10:31:19;;;;;;;36.10;24.55;;;256.40;2252.80;;;;;;4876202;29;20101;-64
2021/10/15 10:33:59;;;;;;;36.17;26.67;;;256.20;2252.80;;;;;;4876385;29;20082;-56
2021/10/15 10:36:27;;;;;;;37.25;24.98;;;256.20;2252.80;;;;;;4875283;29;20336;-65
2021/10/15 10:38:56;;;;;;;36.20;26.27;;;256.20;2252.80;;;;;;4877623;29;20060;-59
2021/10/15 10:41:28;;;;;;;39.38;27.73;;;256.20;2252.80;;;;;;4878368;29;20044;-58
2021/10/15 10:43:53;;;;;;;41.17;24.85;;;256.20;2252.80;;;;;;4877701;29;20073;-63
2021/10/15 10:46:26;;;;;;;31.00;24.58;;;256.00;2252.80;;;;;;4877637;29;20029;-57
2021/10/15 10:48:52;;;;;;;34.42;25.90;;;256.20;2252.80;;;;;;4877772;29;20376;-60
2021/10/15 10:51:23;;;;;;;46.05;31.30;;;256.30;2252.80;;;;;;4877348;29;20041;-57
2021/10/15 10:54:04;;;;;;;58.38;48.67;;;256.50;2252.80;;;;;;4877527;29;20044;-62
2021/10/15 10:56:38;;;;;;;49.90;32.58;;;256.40;2252.80;;;;;;4877656;29;20029;-56
2021/10/15 10:59:16;;;;;;;53.08;35.72;;;256.30;2252.80;;;;;;4877207;29;20052;-58
2021/10/15 11:01:46;;;;;;;53.33;36.88;;;256.40;2252.80;;;;;;4877347;29;20488;-59
2021/10/15 11:04:32;;;;;;;45.38;31.90;;;256.50;2252.80;;;;;;4877484;29;20095;-55
2021/10/15 11:07:05;;;;;;;55.65;40.13;;;256.50;2252.80;;;;;;4877419;29;20029;-55
2021/10/15 11:09:39;;;;;;;49.70;37.58;;;256.60;2252.80;;;;;;4877409;29;20085;-55
2021/10/15 11:12:05;;;;;;;52.67;35.33;;;256.70;2252.80;;;;;;4876526;29;20033;-53
2021/10/15 11:14:54;;;;;;;50.38;35.95;;;256.70;2252.80;;;;;;4877393;29;20108;-55
2021/10/15 11:17:26;;;;;;;58.03;51.80;;;256.70;2252.80;;;;;;4877260;29;20037;-54
2021/10/15 11:20:07;;;;;;;42.38;31.60;;;256.80;2252.80;;;;;;4877278;29;20027;-55
2021/10/15 11:22:33;;;;;;;39.58;28.27;;;256.70;2252.80;;;;;;4877052;29;20105;-56
2021/10/15 11:24:59;;;;;;;36.97;28.13;;;256.60;2252.80;;;;;;4877130;29;20037;-58
2021/10/15 11:27:24;;;;;;;37.83;25.58;;;256.50;2252.80;;;;;;4877096;29;20036;-55
2021/10/15 11:29:57;;;;;;;49.08;33.85;;;256.50;2252.80;;;;;;4876934;29;20385;-56
2021/10/15 11:32:32;;;;;;;46.67;26.57;;;256.50;2252.80;;;;;;4877301;29;21011;-55
2021/10/15 11:35:07;;;;;;;36.25;27.10;;;256.50;2252.80;;;;;;4876763;29;20037;-57
2021/10/15 11:37:46;;;;;;;37.47;26.38;;;256.50;2252.80;;;;;;4876796;29;20116;-58
2021/10/15 11:40:21;;;;;;;40.42;26.95;;;256.50;2252.80;;;;;;4876747;29;20480;-57
2021/10/15 11:42:47;;;;;;;40.38;28.77;;;256.60;2252.80;;;;;;4876622;29;20457;-58
2021/10/15 11:45:25;;;;;;;46.03;32.33;;;256.60;2252.80;;;;;;4876413;29;20039;-61
2021/10/15 11:48:01;;;;;;;44.50;31.70;;;256.50;2252.80;;;;;;4876126;29;20031;-59
2021/10/15 11:50:45;;;;;;;48.83;34.63;;;256.60;2252.80;;;;;;4876633;29;20056;-57
2021/10/15 11:53:12;;;;;;;39.10;26.77;;;256.60;2252.80;;;;;;4876762;29;20017;-60
2021/10/15 11:55:40;;;;;;;37.05;26.10;;;256.70;2252.80;;;;;;4876729;29;20035;-57
2021/10/15 11:58:36;;;;;;;40.33;29.15;;;256.50;2252.80;;;;;;4876467;29;20025;-57
2021/10/15 12:01:08;;;;;;;45.92;32.35;;;256.50;2252.80;;;;;;4800953;29;20054;-61
2021/10/15 12:03:51;;;;;;;43.10;29.92;;;256.30;2252.80;;;;;;4800854;29;20530;-57
2021/10/15 12:06:27;;;;;;;38.88;26.55;;;256.20;2252.80;;;;;;4801063;29;20099;-60
2021/10/15 12:08:56;;;;;;;36.78;25.77;;;256.20;2252.80;;;;;;4801133;29;20042;-57
2021/10/15 12:11:44;;;;;;;40.65;28.15;;;256.40;2252.80;;;;;;4801150;29;20050;-57
2021/10/15 12:14:31;;;;;;;38.55;26.58;;;256.40;2252.80;;;;;;4801119;29;20039;-63